createdAt,value
2018-04-10T00:00:58.512Z,30.90
2018-04-10T00:01:58.507Z,30.30
2018-04-10T00:02:58.511Z,31.60
2018-04-10T00:03:58.505Z,32.10
2018-04-10T00:04:58.528Z,30.70
2018-04-10T00:05:58.514Z,32.60
2018-04-10T00:06:58.518Z,31.70
2018-04-10T00:07:58.510Z,31.50
2018-04-10T00:08:58.523Z,31.30
2018-04-10T00:09:58.524Z,30.90
2018-04-10T00:10:58.536Z,31.30
2018-04-10T00:11:58.540Z,31.00
2018-04-10T00:12:58.541Z,31.30
2018-04-10T00:13:58.539Z,31.30
2018-04-10T00:14:58.535Z,31.50
2018-04-10T00:15:58.547Z,31.60
2018-04-10T00:16:58.551Z,30.50
2018-04-10T00:17:58.558Z,31.50
2018-04-10T00:18:58.560Z,31.80
2018-04-10T00:19:58.559Z,31.20
2018-04-10T00:20:58.550Z,31.80
2018-04-10T00:21:58.556Z,31.80
2018-04-10T00:22:58.571Z,31.80
2018-04-10T00:23:58.568Z,32.20
2018-04-10T00:24:58.574Z,31.00
2018-04-10T00:25:58.581Z,32.90
2018-04-10T00:26:59.142Z,31.90
2018-04-10T00:27:58.591Z,32.80
2018-04-10T00:28:58.582Z,33.30
2018-04-10T00:29:58.590Z,32.30
2018-04-10T00:30:58.591Z,33.50
2018-04-10T00:31:58.597Z,32.30
2018-04-10T00:32:58.600Z,31.00
2018-04-10T00:33:58.600Z,31.50
2018-04-10T00:34:58.604Z,31.50
2018-04-10T00:35:58.612Z,32.60
2018-04-10T00:36:58.613Z,32.50
2018-04-10T00:37:58.619Z,31.30
2018-04-10T00:38:58.645Z,31.30
2018-04-10T00:39:58.620Z,31.40
2018-04-10T00:40:58.630Z,30.20
2018-04-10T00:41:58.624Z,30.80
2018-04-10T00:42:58.630Z,31.50
2018-04-10T00:43:58.634Z,30.90
2018-04-10T00:44:58.634Z,31.40
2018-04-10T00:45:58.640Z,31.10
2018-04-10T00:46:58.641Z,31.10
2018-04-10T00:47:58.658Z,31.30
2018-04-10T00:48:58.666Z,31.70
2018-04-10T00:49:58.658Z,32.30
2018-04-10T00:50:58.656Z,29.80
2018-04-10T00:51:58.663Z,31.80
2018-04-10T00:52:58.655Z,30.30
2018-04-10T00:53:58.684Z,29.70
2018-04-10T00:54:58.668Z,30.70
2018-04-10T00:55:58.668Z,29.50
2018-04-10T00:56:58.677Z,30.30
2018-04-10T00:57:58.674Z,30.20
2018-04-10T00:58:58.684Z,30.10
2018-04-10T00:59:58.683Z,29.20
2018-04-10T01:00:58.694Z,30.10
2018-04-10T01:01:58.683Z,30.30
2018-04-10T01:02:58.700Z,29.40
2018-04-10T01:03:58.693Z,28.10
2018-04-10T01:04:58.700Z,28.60
2018-04-10T01:05:58.690Z,28.90
2018-04-10T01:06:58.699Z,28.60
2018-04-10T01:07:58.707Z,29.10
2018-04-10T01:08:58.710Z,28.70
2018-04-10T01:09:58.713Z,28.10
2018-04-10T01:10:58.710Z,28.70
2018-04-10T01:11:58.732Z,29.20
2018-04-10T01:12:58.724Z,29.40
2018-04-10T01:13:58.733Z,30.10
2018-04-10T01:14:58.728Z,28.70
2018-04-10T01:15:58.724Z,29.30
2018-04-10T01:16:58.734Z,29.40
2018-04-10T01:17:58.742Z,30.20
2018-04-10T01:18:58.746Z,29.30
2018-04-10T01:19:58.748Z,29.90
2018-04-10T01:20:58.746Z,29.80
2018-04-10T01:21:58.753Z,29.10
2018-04-10T01:22:58.752Z,28.80
2018-04-10T01:23:58.754Z,29.50
2018-04-10T01:24:58.766Z,28.70
2018-04-10T01:25:58.762Z,30.40
2018-04-10T01:26:58.773Z,28.90
2018-04-10T01:27:58.779Z,29.30
2018-04-10T01:28:58.765Z,30.80
2018-04-10T01:29:58.780Z,30.30
2018-04-10T01:30:58.780Z,29.70
2018-04-10T01:31:58.782Z,30.60
2018-04-10T01:32:58.811Z,29.90
2018-04-10T01:33:58.782Z,30.00
2018-04-10T01:34:58.796Z,29.80
2018-04-10T01:35:58.795Z,29.60
2018-04-10T01:36:58.792Z,30.50
2018-04-10T01:37:59.663Z,29.60
2018-04-10T01:38:58.804Z,29.10
2018-04-10T01:39:58.809Z,30.30
2018-04-10T01:40:58.816Z,29.90
2018-04-10T01:41:58.808Z,29.70
2018-04-10T01:42:58.818Z,29.50
2018-04-10T01:43:58.812Z,29.10
2018-04-10T01:44:58.817Z,30.20
2018-04-10T01:45:58.824Z,29.70
2018-04-10T01:46:58.824Z,28.80
2018-04-10T01:47:58.825Z,29.10
2018-04-10T01:48:58.840Z,28.80
2018-04-10T01:49:58.837Z,29.10
2018-04-10T01:50:58.845Z,29.10
2018-04-10T01:51:58.840Z,29.10
2018-04-10T01:52:58.852Z,27.90
2018-04-10T01:53:58.853Z,29.10
2018-04-10T01:54:58.845Z,28.40
2018-04-10T01:55:58.864Z,29.30
2018-04-10T01:56:58.863Z,27.90
2018-04-10T01:57:58.849Z,27.40
2018-04-10T01:58:58.864Z,28.70
2018-04-10T01:59:58.870Z,28.00
2018-04-10T02:00:58.912Z,28.10
2018-04-10T02:01:58.874Z,26.60
2018-04-10T02:02:58.880Z,27.60
2018-04-10T02:03:58.886Z,28.20
2018-04-10T02:04:58.935Z,28.80
2018-04-10T02:05:58.885Z,29.20
2018-04-10T02:06:58.882Z,28.20
2018-04-10T02:07:58.892Z,28.60
2018-04-10T02:08:58.897Z,27.60
2018-04-10T02:09:58.904Z,28.60
2018-04-10T02:10:58.899Z,29.10
2018-04-10T02:11:58.897Z,27.70
2018-04-10T02:12:58.900Z,28.70
2018-04-10T02:13:58.906Z,28.50
2018-04-10T02:14:58.919Z,27.70
2018-04-10T02:15:58.908Z,28.40
2018-04-10T02:16:58.936Z,29.00
2018-04-10T02:17:58.926Z,28.30
2018-04-10T02:18:58.925Z,27.80
2018-04-10T02:19:58.924Z,28.10
2018-04-10T02:20:58.931Z,29.00
2018-04-10T02:21:58.928Z,27.10
2018-04-10T02:22:58.941Z,28.20
2018-04-10T02:23:58.942Z,27.70
2018-04-10T02:24:58.948Z,27.60
2018-04-10T02:25:58.953Z,29.50
2018-04-10T02:26:58.955Z,28.90
2018-04-10T02:27:59.024Z,28.20
2018-04-10T02:28:58.960Z,29.70
2018-04-10T02:29:58.960Z,29.20
2018-04-10T02:30:58.964Z,28.20
2018-04-10T02:31:58.968Z,28.70
2018-04-10T02:32:58.977Z,26.90
2018-04-10T02:33:58.985Z,27.90
2018-04-10T02:34:58.977Z,28.70
2018-04-10T02:35:58.981Z,28.80
2018-04-10T02:36:58.981Z,27.40
2018-04-10T02:37:58.979Z,30.30
2018-04-10T02:38:58.990Z,29.70
2018-04-10T02:39:58.998Z,29.20
2018-04-10T02:40:58.994Z,28.30
2018-04-10T02:41:59.021Z,29.00
2018-04-10T02:42:59.000Z,28.80
2018-04-10T02:43:59.002Z,27.40
2018-04-10T02:44:59.013Z,28.90
2018-04-10T02:45:59.002Z,28.60
2018-04-10T02:46:59.005Z,28.60
2018-04-10T02:47:59.013Z,30.70
2018-04-10T02:48:59.695Z,30.00
2018-04-10T02:49:59.023Z,30.00
2018-04-10T02:50:59.015Z,30.00
2018-04-10T02:51:59.024Z,28.30
2018-04-10T02:52:59.026Z,27.90
2018-04-10T02:53:59.030Z,28.70
2018-04-10T02:54:59.035Z,28.30
2018-04-10T02:55:59.041Z,26.70
2018-04-10T02:56:59.041Z,28.10
2018-04-10T02:57:59.045Z,27.60
2018-04-10T02:58:59.037Z,27.60
2018-04-10T02:59:59.050Z,27.60
2018-04-10T03:00:59.044Z,28.20
2018-04-10T03:01:59.060Z,28.60
2018-04-10T03:02:59.050Z,28.50
2018-04-10T03:03:59.060Z,26.70
2018-04-10T03:04:59.052Z,27.30
2018-04-10T03:05:59.065Z,29.30
2018-04-10T03:06:59.065Z,28.00
2018-04-10T03:07:59.070Z,28.50
2018-04-10T03:08:59.068Z,27.90
2018-04-10T03:09:59.068Z,28.10
2018-04-10T03:10:59.078Z,28.40
2018-04-10T03:11:59.117Z,28.50
2018-04-10T03:12:59.086Z,28.40
2018-04-10T03:13:59.088Z,28.80
2018-04-10T03:14:59.088Z,28.10
2018-04-10T03:15:59.178Z,28.90
2018-04-10T03:16:59.083Z,29.50
2018-04-10T03:17:59.101Z,28.70
2018-04-10T03:18:59.099Z,29.80
2018-04-10T03:19:59.103Z,30.00
2018-04-10T03:20:59.119Z,28.70
2018-04-10T03:21:59.114Z,30.10
2018-04-10T03:22:59.114Z,29.90
2018-04-10T03:23:59.112Z,30.40
2018-04-10T03:24:59.127Z,30.60
2018-04-10T03:25:59.111Z,30.10
2018-04-10T03:26:59.127Z,30.70
2018-04-10T03:27:59.149Z,30.00
2018-04-10T03:28:59.131Z,30.50
2018-04-10T03:29:59.129Z,30.50
2018-04-10T03:30:59.133Z,31.40
2018-04-10T03:31:59.143Z,30.80
2018-04-10T03:32:59.140Z,30.60
2018-04-10T03:33:59.149Z,31.70
2018-04-10T03:34:59.146Z,30.60
2018-04-10T03:35:59.139Z,30.70
2018-04-10T03:36:59.143Z,30.40
2018-04-10T03:37:59.166Z,30.00
2018-04-10T03:38:59.151Z,29.40
2018-04-10T03:39:59.154Z,29.90
2018-04-10T03:40:59.167Z,30.80
2018-04-10T03:41:59.174Z,30.00
2018-04-10T03:42:59.172Z,30.20
2018-04-10T03:43:59.170Z,30.70
2018-04-10T03:44:59.172Z,30.80
2018-04-10T03:45:59.176Z,29.90
2018-04-10T03:46:59.185Z,29.70
2018-04-10T03:47:59.183Z,29.40
2018-04-10T03:48:59.176Z,29.20
2018-04-10T03:49:59.191Z,31.10
2018-04-10T03:50:59.185Z,30.80
2018-04-10T03:51:59.185Z,30.10
2018-04-10T03:52:59.193Z,29.90
2018-04-10T03:53:59.196Z,31.40
2018-04-10T03:54:59.202Z,30.70
2018-04-10T03:55:59.206Z,31.30
2018-04-10T03:56:59.211Z,30.90
2018-04-10T03:57:59.212Z,31.20
2018-04-10T03:58:59.210Z,29.90
2018-04-10T03:59:59.283Z,31.20
2018-04-10T04:00:59.215Z,30.10
2018-04-10T04:01:59.210Z,30.70
2018-04-10T04:02:59.224Z,30.30
2018-04-10T04:03:59.222Z,32.50
2018-04-10T04:04:59.230Z,32.20
2018-04-10T04:05:59.236Z,32.00
2018-04-10T04:06:59.234Z,29.90
2018-04-10T04:07:59.230Z,31.70
2018-04-10T04:08:59.269Z,32.00
2018-04-10T04:09:59.237Z,31.50
2018-04-10T04:10:59.243Z,32.80
2018-04-10T04:11:59.259Z,32.60
2018-04-10T04:12:59.238Z,31.70
2018-04-10T04:13:59.252Z,31.50
2018-04-10T04:14:59.249Z,31.90
2018-04-10T04:15:59.276Z,31.90
2018-04-10T04:16:59.253Z,31.80
2018-04-10T04:17:59.248Z,32.00
2018-04-10T04:18:59.268Z,32.30
2018-04-10T04:19:59.260Z,31.00
2018-04-10T04:20:59.268Z,31.10
2018-04-10T04:21:59.273Z,31.00
2018-04-10T04:22:59.261Z,31.40
2018-04-10T04:23:59.276Z,32.70
2018-04-10T04:24:59.278Z,32.00
2018-04-10T04:25:59.282Z,32.20
2018-04-10T04:26:59.294Z,32.30
2018-04-10T04:27:59.288Z,32.50
2018-04-10T04:28:59.311Z,31.30
2018-04-10T04:29:59.303Z,31.60
2018-04-10T04:30:59.295Z,31.90
2018-04-10T04:31:59.285Z,33.30
2018-04-10T04:32:59.300Z,32.60
2018-04-10T04:33:59.306Z,32.50
2018-04-10T04:34:59.306Z,33.10
2018-04-10T04:35:59.302Z,32.30
2018-04-10T04:36:59.310Z,32.90
2018-04-10T04:37:59.308Z,32.10
2018-04-10T04:38:59.326Z,32.90
2018-04-10T04:39:59.313Z,32.30
2018-04-10T04:40:59.330Z,32.10
2018-04-10T04:41:59.324Z,33.80
2018-04-10T04:42:59.329Z,32.70
2018-04-10T04:43:59.336Z,33.10
2018-04-10T04:44:59.329Z,32.70
2018-04-10T04:45:59.330Z,32.00
2018-04-10T04:46:59.336Z,33.20
2018-04-10T04:47:59.407Z,31.90
2018-04-10T04:48:59.346Z,33.00
2018-04-10T04:50:00.232Z,32.30
2018-04-10T04:50:59.353Z,32.60
2018-04-10T04:51:59.350Z,31.80
2018-04-10T04:52:59.358Z,32.50
2018-04-10T04:53:59.408Z,31.00
2018-04-10T04:54:59.371Z,32.10
2018-04-10T04:55:59.362Z,32.80
2018-04-10T04:56:59.354Z,30.60
2018-04-10T04:57:59.363Z,31.90
2018-04-10T04:58:59.366Z,31.90
2018-04-10T04:59:59.368Z,32.40
2018-04-10T05:00:59.375Z,32.90
2018-04-10T05:01:59.377Z,33.40
2018-04-10T05:02:59.372Z,32.30
2018-04-10T05:03:59.377Z,31.90
2018-04-10T05:04:59.386Z,32.90
2018-04-10T05:05:59.387Z,32.60
2018-04-10T05:06:59.388Z,32.00
2018-04-10T05:07:59.398Z,32.10
2018-04-10T05:08:59.397Z,30.80
2018-04-10T05:09:59.399Z,31.00
2018-04-10T05:10:59.412Z,32.40
2018-04-10T05:11:59.400Z,31.70
2018-04-10T05:12:59.394Z,31.30
2018-04-10T05:13:59.401Z,32.60
2018-04-10T05:14:59.411Z,32.50
2018-04-10T05:15:59.413Z,32.60
2018-04-10T05:16:59.426Z,32.20
2018-04-10T05:17:59.420Z,31.30
2018-04-10T05:18:59.406Z,31.10
2018-04-10T05:19:59.421Z,31.80
2018-04-10T05:20:59.418Z,31.00
2018-04-10T05:21:59.432Z,31.00
2018-04-10T05:22:59.484Z,31.10
2018-04-10T05:23:59.433Z,31.20
2018-04-10T05:24:59.423Z,31.60
2018-04-10T05:25:59.442Z,32.30
2018-04-10T05:26:59.445Z,31.40
2018-04-10T05:27:59.448Z,32.80
2018-04-10T05:28:59.454Z,31.00
2018-04-10T05:29:59.463Z,31.30
2018-04-10T05:30:59.461Z,32.50
2018-04-10T05:31:59.453Z,31.90
2018-04-10T05:32:59.460Z,31.10
2018-04-10T05:33:59.471Z,31.50
2018-04-10T05:34:59.460Z,31.10
2018-04-10T05:35:59.469Z,31.50
2018-04-10T05:36:59.477Z,32.30
2018-04-10T05:37:59.548Z,31.90
2018-04-10T05:38:59.478Z,32.90
2018-04-10T05:40:00.245Z,31.80
2018-04-10T05:40:59.481Z,32.40
2018-04-10T05:41:59.514Z,33.20
2018-04-10T05:42:59.487Z,32.40
2018-04-10T05:43:59.487Z,33.00
2018-04-10T05:44:59.479Z,31.90
2018-04-10T05:45:59.497Z,32.60
2018-04-10T05:46:59.493Z,32.80
2018-04-10T05:47:59.503Z,31.40
2018-04-10T05:48:59.498Z,32.40
2018-04-10T05:49:59.547Z,32.00
2018-04-10T05:50:59.523Z,32.40
2018-04-10T05:51:59.505Z,33.30
2018-04-10T05:52:59.505Z,32.30
2018-04-10T05:53:59.510Z,32.20
2018-04-10T05:54:59.528Z,32.50
2018-04-10T05:55:59.537Z,32.30
2018-04-10T05:56:59.538Z,32.80
2018-04-10T05:57:59.539Z,32.50
2018-04-10T05:58:59.532Z,31.80
2018-04-10T06:00:00.250Z,32.30
2018-04-10T06:00:59.540Z,31.40
2018-04-10T06:01:59.544Z,31.20
2018-04-10T06:03:00.252Z,32.40
2018-04-10T06:03:59.584Z,31.80
2018-04-10T06:04:59.576Z,31.40
2018-04-10T06:05:59.594Z,32.40
2018-04-10T06:06:59.557Z,32.10
2018-04-10T06:07:59.564Z,31.40
2018-04-10T06:08:59.634Z,32.50
2018-04-10T06:09:59.574Z,32.00
2018-04-10T06:10:59.563Z,32.60
2018-04-10T06:11:59.569Z,34.20
2018-04-10T06:12:59.578Z,31.30
2018-04-10T06:13:59.576Z,32.50
2018-04-10T06:14:59.580Z,32.90
2018-04-10T06:15:59.591Z,31.90
2018-04-10T06:16:59.589Z,32.40
2018-04-10T06:17:59.602Z,33.40
2018-04-10T06:18:59.593Z,32.10
2018-04-10T06:19:59.594Z,31.70
2018-04-10T06:20:59.608Z,30.40
2018-04-10T06:21:59.618Z,31.10
2018-04-10T06:22:59.608Z,32.10
2018-04-10T06:23:59.620Z,31.00
2018-04-10T06:24:59.615Z,31.50
2018-04-10T06:25:59.718Z,32.00
2018-04-10T06:26:59.654Z,31.70
2018-04-10T06:27:59.761Z,31.30
2018-04-10T06:28:59.646Z,32.80
2018-04-10T06:29:59.645Z,31.90
2018-04-10T06:30:59.696Z,31.40
2018-04-10T06:31:59.650Z,32.60
2018-04-10T06:32:59.657Z,31.10
2018-04-10T06:33:59.663Z,30.90
2018-04-10T06:34:59.653Z,29.70
2018-04-10T06:35:59.670Z,32.10
2018-04-10T06:36:59.671Z,30.20
2018-04-10T06:37:59.677Z,29.00
2018-04-10T06:38:59.698Z,31.30
2018-04-10T06:39:59.698Z,29.90
2018-04-10T06:40:59.708Z,30.30
2018-04-10T06:41:59.720Z,31.00
2018-04-10T06:42:59.713Z,30.00
2018-04-10T06:43:59.698Z,31.10
2018-04-10T06:44:59.738Z,30.90
2018-04-10T06:45:59.737Z,30.60
2018-04-10T06:46:59.759Z,31.00
2018-04-10T06:47:59.742Z,30.40
2018-04-10T06:49:00.274Z,29.80
2018-04-10T06:49:59.775Z,29.30
2018-04-10T06:50:59.781Z,30.60
2018-04-10T06:51:59.777Z,31.30
2018-04-10T06:52:59.830Z,29.60
2018-04-10T06:53:59.806Z,31.20
2018-04-10T06:54:59.814Z,31.30
2018-04-10T06:55:59.800Z,29.00
2018-04-10T06:56:59.829Z,30.90
2018-04-10T06:57:59.811Z,30.80
2018-04-10T06:58:59.811Z,29.30
2018-04-10T06:59:59.817Z,29.30
2018-04-10T07:00:59.824Z,28.90
2018-04-10T07:01:59.828Z,29.00
2018-04-10T07:02:59.850Z,29.50
2018-04-10T07:03:59.846Z,29.60
2018-04-10T07:04:59.860Z,29.70
2018-04-10T07:05:59.870Z,28.90
2018-04-10T07:06:59.890Z,27.70
2018-04-10T07:07:59.924Z,29.00
2018-04-10T07:08:59.893Z,28.80
2018-04-10T07:09:59.957Z,28.90
2018-04-10T07:10:59.928Z,29.00
2018-04-10T07:11:59.936Z,27.50
2018-04-10T07:12:59.924Z,28.30
2018-04-10T07:13:59.937Z,28.70
2018-04-10T07:14:59.984Z,28.90
2018-04-10T07:15:59.968Z,28.20
2018-04-10T07:16:59.952Z,28.40
2018-04-10T07:17:59.988Z,27.10
2018-04-10T07:18:59.990Z,29.00
2018-04-10T07:19:59.998Z,29.30
2018-04-10T07:21:00.049Z,28.30
2018-04-10T07:22:00.015Z,28.50
2018-04-10T07:23:00.027Z,29.40
2018-04-10T07:24:00.034Z,29.00
2018-04-10T07:25:00.870Z,29.20
2018-04-10T07:26:00.050Z,29.10
2018-04-10T07:27:00.119Z,28.10
2018-04-10T07:28:00.075Z,27.30
2018-04-10T07:29:00.079Z,27.80
2018-04-10T07:30:00.090Z,29.80
2018-04-10T07:31:00.126Z,27.80
2018-04-10T07:32:00.145Z,29.40
2018-04-10T07:33:00.148Z,29.00
2018-04-10T07:34:00.203Z,28.00
2018-04-10T07:35:00.152Z,28.70
2018-04-10T07:36:00.196Z,28.80
2018-04-10T07:37:00.196Z,29.10
2018-04-10T07:38:00.210Z,30.70
2018-04-10T07:39:00.213Z,31.20
2018-04-10T07:40:00.214Z,29.20
2018-04-10T07:41:00.214Z,29.20
2018-04-10T07:42:00.253Z,29.80
2018-04-10T07:43:00.265Z,29.90
2018-04-10T07:44:00.369Z,30.10
2018-04-10T07:45:00.258Z,30.50
2018-04-10T07:46:00.322Z,30.70
2018-04-10T07:47:00.290Z,32.60
2018-04-10T07:48:00.291Z,33.60
2018-04-10T07:49:00.316Z,30.90
2018-04-10T07:50:00.318Z,30.60
2018-04-10T07:51:00.333Z,31.40
2018-04-10T07:52:00.340Z,32.20
2018-04-10T07:53:00.354Z,32.10
2018-04-10T07:54:00.374Z,32.40
2018-04-10T07:55:00.449Z,29.90
2018-04-10T07:56:01.318Z,30.10
2018-04-10T07:57:00.434Z,30.70
2018-04-10T07:58:00.478Z,28.50
2018-04-10T07:59:00.515Z,29.80
2018-04-10T08:00:00.478Z,30.10
2018-04-10T08:01:00.498Z,30.80
2018-04-10T08:02:00.477Z,30.60
2018-04-10T08:03:00.480Z,29.60
2018-04-10T08:04:00.505Z,29.30
2018-04-10T08:05:00.588Z,29.00
2018-04-10T08:06:00.577Z,28.80
2018-04-10T08:07:00.537Z,27.80
2018-04-10T08:08:00.547Z,29.80
2018-04-10T08:09:00.680Z,29.50
2018-04-10T08:10:00.652Z,28.40
2018-04-10T08:11:00.631Z,28.80
2018-04-10T08:12:00.635Z,29.10
2018-04-10T08:13:00.658Z,29.30
2018-04-10T08:14:00.655Z,29.50
2018-04-10T08:15:00.648Z,28.90
2018-04-10T08:16:00.697Z,27.50
2018-04-10T08:17:00.694Z,28.00
2018-04-10T08:18:00.721Z,27.30
2018-04-10T08:19:01.410Z,27.60
2018-04-10T08:20:00.726Z,28.80
2018-04-10T08:21:00.733Z,29.10
2018-04-10T08:22:00.776Z,28.40
2018-04-10T08:23:00.765Z,29.00
2018-04-10T08:24:00.806Z,29.20
2018-04-10T08:25:00.797Z,28.20
2018-04-10T08:26:00.807Z,28.70
2018-04-10T08:27:00.814Z,30.10
2018-04-10T08:28:00.854Z,29.40
2018-04-10T08:29:00.863Z,30.40
2018-04-10T08:30:00.880Z,29.50
2018-04-10T08:31:00.908Z,30.20
2018-04-10T08:32:00.924Z,30.50
2018-04-10T08:33:00.916Z,29.30
2018-04-10T08:34:00.946Z,29.10
2018-04-10T08:35:00.957Z,29.30
2018-04-10T08:36:00.990Z,30.00
2018-04-10T08:37:00.972Z,30.40
2018-04-10T08:38:00.996Z,31.80
2018-04-10T08:39:01.029Z,29.80
2018-04-10T08:40:01.920Z,30.60
2018-04-10T08:41:01.058Z,29.80
2018-04-10T08:42:01.083Z,30.00
2018-04-10T08:43:01.087Z,30.30
2018-04-10T08:44:01.095Z,30.50
2018-04-10T08:45:01.130Z,30.40
2018-04-10T08:46:01.218Z,32.40
2018-04-10T08:47:01.144Z,31.20
2018-04-10T08:48:01.150Z,31.00
2018-04-10T08:49:01.161Z,30.80
2018-04-10T08:50:01.194Z,30.90
2018-04-10T08:51:01.187Z,30.50
2018-04-10T08:52:01.223Z,30.30
2018-04-10T08:53:01.225Z,30.40
2018-04-10T08:54:01.239Z,30.90
2018-04-10T08:55:01.254Z,29.70
2018-04-10T08:56:01.308Z,29.60
2018-04-10T08:57:01.294Z,30.20
2018-04-10T08:58:01.317Z,29.40
2018-04-10T08:59:01.315Z,30.80
2018-04-10T09:00:01.347Z,31.10
2018-04-10T09:01:01.407Z,29.90
2018-04-10T09:02:01.378Z,29.70
2018-04-10T09:03:01.455Z,29.80
2018-04-10T09:04:01.452Z,30.20
2018-04-10T09:05:01.804Z,28.70
2018-04-10T09:06:01.499Z,29.30
2018-04-10T09:07:01.475Z,30.20
2018-04-10T09:08:01.517Z,29.30
2018-04-10T09:09:01.495Z,29.80
2018-04-10T09:10:01.519Z,29.80
2018-04-10T09:11:01.534Z,35.00
2018-04-10T09:12:01.547Z,33.10
2018-04-10T09:13:01.558Z,31.20
2018-04-10T09:14:02.366Z,30.40
2018-04-10T09:15:01.589Z,28.40
2018-04-10T09:16:01.651Z,29.80
2018-04-10T09:17:01.700Z,30.30
2018-04-10T09:18:01.654Z,29.10
2018-04-10T09:19:01.657Z,30.50
2018-04-10T09:20:02.885Z,29.10
2018-04-10T09:21:01.690Z,30.00
2018-04-10T09:22:01.708Z,30.60
2018-04-10T09:23:01.744Z,30.50
2018-04-10T09:24:02.412Z,28.60
2018-04-10T09:25:02.822Z,29.70
2018-04-10T09:26:01.874Z,29.30
2018-04-10T09:27:01.820Z,30.00
2018-04-10T09:28:01.836Z,28.90
2018-04-10T09:29:01.923Z,28.60
2018-04-10T09:30:01.871Z,30.10
2018-04-10T09:31:02.382Z,29.30
2018-04-10T09:32:01.948Z,28.10
2018-04-10T09:33:01.971Z,27.00
2018-04-10T09:34:01.966Z,28.40
2018-04-10T09:35:01.975Z,28.70
2018-04-10T09:36:02.004Z,28.60
2018-04-10T09:37:01.998Z,29.60
2018-04-10T09:38:02.078Z,28.20
2018-04-10T09:39:02.051Z,29.40
2018-04-10T09:40:02.070Z,28.10
2018-04-10T09:41:02.159Z,28.70
2018-04-10T09:42:02.209Z,27.00
2018-04-10T09:43:02.185Z,26.70
2018-04-10T09:44:04.069Z,28.10
2018-04-10T09:45:03.317Z,27.90
2018-04-10T09:46:02.193Z,28.20
2018-04-10T09:47:03.028Z,28.30
2018-04-10T09:48:02.418Z,26.80
2018-04-10T09:49:02.291Z,29.20
2018-04-10T09:50:02.310Z,27.90
2018-04-10T09:51:02.517Z,28.20
2018-04-10T09:52:02.345Z,27.10
2018-04-10T09:53:03.839Z,28.50
2018-04-10T09:54:03.163Z,28.30
2018-04-10T09:55:03.184Z,28.20
2018-04-10T09:56:02.936Z,27.90
2018-04-10T09:57:02.952Z,27.60
2018-04-10T09:58:12.833Z,27.90
2018-04-10T09:59:02.573Z,26.60
2018-04-10T10:00:02.684Z,26.40
2018-04-10T10:01:02.789Z,27.50
2018-04-10T10:02:02.572Z,27.80
2018-04-10T10:03:02.569Z,26.80
2018-04-10T10:04:02.540Z,28.00
2018-04-10T10:05:02.586Z,27.40
2018-04-10T10:06:02.612Z,27.30
2018-04-10T10:07:02.653Z,28.60
2018-04-10T10:08:02.696Z,26.90
2018-04-10T10:09:02.648Z,25.50
2018-04-10T10:10:02.719Z,26.20
2018-04-10T10:11:02.974Z,26.40
2018-04-10T10:12:02.740Z,26.40
2018-04-10T10:13:02.761Z,25.20
2018-04-10T10:14:02.748Z,26.40
2018-04-10T10:15:02.774Z,26.60
2018-04-10T10:16:02.795Z,24.80
2018-04-10T10:17:02.814Z,25.40
2018-04-10T10:18:02.835Z,26.50
2018-04-10T10:19:03.629Z,26.00
2018-04-10T10:20:02.922Z,24.40
2018-04-10T10:21:02.935Z,25.50
2018-04-10T10:22:02.946Z,25.50
2018-04-10T10:23:03.470Z,25.40
2018-04-10T10:24:03.054Z,24.70
2018-04-10T10:25:03.023Z,25.00
2018-04-10T10:26:03.078Z,26.10
2018-04-10T10:27:03.041Z,25.50
2018-04-10T10:28:03.167Z,25.20
2018-04-10T10:29:03.096Z,24.40
2018-04-10T10:30:03.104Z,23.80
2018-04-10T10:31:03.189Z,23.50
2018-04-10T10:32:03.131Z,24.30
2018-04-10T10:33:03.163Z,22.30
2018-04-10T10:34:03.989Z,22.90
2018-04-10T10:35:03.263Z,21.80
2018-04-10T10:36:03.259Z,23.00
2018-04-10T10:37:03.224Z,22.40
2018-04-10T10:38:03.295Z,23.50
2018-04-10T10:39:03.259Z,23.90
2018-04-10T10:40:03.359Z,23.20
2018-04-10T10:41:03.366Z,23.40
2018-04-10T10:42:03.366Z,21.80
2018-04-10T10:43:03.381Z,22.50
2018-04-10T10:44:03.984Z,22.70
2018-04-10T10:45:04.131Z,23.20
2018-04-10T10:46:03.488Z,23.60
2018-04-10T10:47:04.026Z,24.20
2018-04-10T10:48:03.520Z,22.20
2018-04-10T10:49:03.445Z,22.70
2018-04-10T10:50:03.471Z,21.80
2018-04-10T10:51:03.643Z,21.10
2018-04-10T10:52:03.511Z,20.10
2018-04-10T10:53:03.650Z,20.30
2018-04-10T10:54:03.539Z,20.60
2018-04-10T10:55:03.566Z,21.10
2018-04-10T10:56:03.666Z,21.20
2018-04-10T10:57:03.588Z,20.20
2018-04-10T10:58:03.693Z,21.10
2018-04-10T10:59:03.713Z,21.00
2018-04-10T11:00:03.676Z,21.10
2018-04-10T11:01:03.727Z,23.20
2018-04-10T11:02:03.838Z,25.50
2018-04-10T11:03:03.905Z,24.10
2018-04-10T11:04:03.839Z,24.50
2018-04-10T11:05:03.745Z,25.60
2018-04-10T11:06:03.757Z,25.60
2018-04-10T11:07:03.846Z,25.40
2018-04-10T11:08:03.830Z,24.90
2018-04-10T11:09:03.967Z,24.50
2018-04-10T11:10:03.957Z,25.00
2018-04-10T11:11:03.897Z,26.70
2018-04-10T11:12:03.862Z,27.30
2018-04-10T11:13:03.915Z,26.80
2018-04-10T11:15:38.116Z,72.60
2018-04-10T11:16:37.014Z,33.40
2018-04-10T11:17:37.489Z,26.70
2018-04-10T11:18:40.214Z,27.60
2018-04-10T11:19:38.439Z,27.50
2018-04-10T11:20:37.269Z,29.50
2018-04-10T11:21:36.682Z,28.40
2018-04-10T11:22:37.501Z,28.40
2018-04-10T11:25:13.169Z,28.20
2018-04-10T11:26:10.666Z,27.40
2018-04-10T11:27:09.735Z,29.90
2018-04-10T11:28:09.763Z,28.60
2018-04-10T11:29:09.836Z,29.50
2018-04-10T11:30:09.905Z,29.20
2018-04-10T11:31:09.809Z,29.50
2018-04-10T11:32:16.757Z,30.60
2018-04-10T11:33:33.711Z,31.90
2018-04-10T11:34:09.903Z,30.10
2018-04-10T11:35:09.932Z,31.00
2018-04-10T11:36:10.683Z,30.80
2018-04-10T11:37:09.891Z,31.60
2018-04-10T11:38:10.846Z,30.50
2018-04-10T11:39:10.330Z,30.20
2018-04-10T11:40:10.024Z,30.10
2018-04-10T11:41:09.996Z,29.80
2018-04-10T11:42:10.295Z,30.60
2018-04-10T11:43:10.182Z,32.00
2018-04-10T11:44:10.124Z,31.20
2018-04-10T11:45:10.109Z,31.50
2018-04-10T11:46:10.166Z,30.50
2018-04-10T11:47:10.140Z,31.80
2018-04-10T11:48:10.116Z,32.70
2018-04-10T11:49:10.078Z,31.00
2018-04-10T11:50:10.051Z,31.40
2018-04-10T11:51:10.075Z,31.60
2018-04-10T11:52:10.071Z,32.50
2018-04-10T11:53:10.684Z,34.40
2018-04-10T11:54:10.088Z,33.90
2018-04-10T11:55:10.216Z,34.20
2018-04-10T11:56:10.126Z,32.80
2018-04-10T11:57:10.122Z,32.90
2018-04-10T11:58:10.188Z,32.20
2018-04-10T11:59:11.715Z,31.90
2018-04-10T12:00:10.244Z,31.80
2018-04-10T12:01:10.159Z,31.30
2018-04-10T12:02:10.279Z,31.10
2018-04-10T12:03:10.174Z,32.70
2018-04-10T12:04:11.098Z,31.40
2018-04-10T12:05:10.702Z,30.20
2018-04-10T12:10:49.725Z,31.20
2018-04-10T12:11:49.883Z,33.40
2018-04-10T12:12:50.356Z,31.60
2018-04-10T12:13:49.148Z,32.10
2018-04-10T12:14:56.674Z,31.20
2018-04-10T12:15:50.198Z,31.90
2018-04-10T12:16:49.153Z,32.50
2018-04-10T12:19:22.294Z,31.40
2018-04-10T12:20:21.384Z,31.80
2018-04-10T12:21:22.578Z,31.50
2018-04-10T12:22:21.336Z,30.10
2018-04-10T12:23:21.369Z,32.20
2018-04-10T12:24:21.462Z,33.20
2018-04-10T12:25:21.420Z,31.50
2018-04-10T12:26:21.565Z,32.30
2018-04-10T12:27:21.776Z,32.80
2018-04-10T12:28:22.383Z,32.80
2018-04-10T12:29:21.445Z,33.00
2018-04-10T12:30:21.511Z,33.10
2018-04-10T12:31:21.452Z,33.90
2018-04-10T12:32:21.479Z,34.10
2018-04-10T12:33:21.467Z,33.40
2018-04-10T12:34:21.474Z,34.10
2018-04-10T12:35:21.513Z,35.20
2018-04-10T12:36:21.461Z,35.60
2018-04-10T12:37:21.520Z,33.90
2018-04-10T12:38:21.628Z,33.80
2018-04-10T12:39:21.508Z,33.50
2018-04-10T12:40:21.527Z,34.70
2018-04-10T12:41:21.498Z,36.60
2018-04-10T12:42:22.280Z,36.40
2018-04-10T12:43:21.532Z,37.80
2018-04-10T12:44:22.297Z,38.00
2018-04-10T12:45:21.536Z,38.20
2018-04-10T12:46:21.662Z,37.20
2018-04-10T12:47:21.707Z,35.60
2018-04-10T12:48:21.608Z,37.20
2018-04-10T12:49:21.605Z,36.80
2018-04-10T12:50:21.696Z,35.10
2018-04-10T12:51:21.581Z,35.40
2018-04-10T12:52:21.617Z,35.60
2018-04-10T12:53:21.604Z,34.70
2018-04-10T12:54:21.639Z,34.80
2018-04-10T12:55:22.290Z,33.20
2018-04-10T12:56:21.655Z,34.10
2018-04-10T12:57:21.634Z,32.70
2018-04-10T12:58:21.753Z,32.90
2018-04-10T12:59:21.881Z,32.20
2018-04-10T13:00:21.699Z,33.20
2018-04-10T13:01:21.694Z,33.80
2018-04-10T13:02:21.759Z,34.30